Terminal Aerodrome Forecast
Issued by NWS

Home | Current Version | Previous Version | Text Only | Print | Product List | Glossary On
Versions: 1 2 3 4 5 6 7 8 9 10 11 12 13 14
000
FTPQ31 PGUM 032325
TAFGUM
TAF

TAF
PKMJ 032325Z 0400/0424 07015KT 6SM SHRA VCTS SCT012CB BKN050 BKN120
      TEMPO 0400/0404 3SM +SHRA OVC012
     FM040700 08011KT P6SM VCSH SCT015 BKN050 BKN120=

USA.gov is the U.S. government's official web portal to all federal, state and local government web resources and services.